sensor_id;sensor_type;location;lat;lon;timestamp;temperature;humidity
10889;DHT22;5497;51.388;6.780;2022-11-21T00:00:06;5.80;99.90
10889;DHT22;5497;51.388;6.780;2022-11-21T00:02:33;5.80;99.90
10889;DHT22;5497;51.388;6.780;2022-11-21T00:05:00;5.90;99.90
10889;DHT22;5497;51.388;6.780;2022-11-21T00:07:27;5.70;99.90
10889;DHT22;5497;51.388;6.780;2022-11-21T00:09:54;5.70;99.90
10889;DHT22;5497;51.388;6.780;2022-11-21T00:12:21;3.10;99.90
10889;DHT22;5497;51.388;6.780;2022-11-21T00:14:49;5.70;99.90
10889;DHT22;5497;51.388;6.780;2022-11-21T00:17:16;5.60;99.90
10889;DHT22;5497;51.388;6.780;2022-11-21T00:19:43;5.60;99.90
10889;DHT22;5497;51.388;6.780;2022-11-21T00:22:11;5.60;99.90
10889;DHT22;5497;51.388;6.780;2022-11-21T00:24:37;5.70;99.90
10889;DHT22;5497;51.388;6.780;2022-11-21T00:27:04;5.70;99.90
10889;DHT22;5497;51.388;6.780;2022-11-21T00:29:31;5.70;99.90
10889;DHT22;5497;51.388;6.780;2022-11-21T00:32:00;5.70;99.90
10889;DHT22;5497;51.388;6.780;2022-11-21T00:34:27;5.60;99.90
10889;DHT22;5497;51.388;6.780;2022-11-21T00:36:54;5.60;99.90
10889;DHT22;5497;51.388;6.780;2022-11-21T00:39:21;5.60;99.90
10889;DHT22;5497;51.388;6.780;2022-11-21T00:41:48;5.60;99.90
10889;DHT22;5497;51.388;6.780;2022-11-21T00:44:15;5.70;99.90
10889;DHT22;5497;51.388;6.780;2022-11-21T00:46:42;5.60;99.90
10889;DHT22;5497;51.388;6.780;2022-11-21T00:49:10;5.60;99.90
10889;DHT22;5497;51.388;6.780;2022-11-21T00:51:37;5.70;99.90
10889;DHT22;5497;51.388;6.780;2022-11-21T00:54:07;5.70;99.90
10889;DHT22;5497;51.388;6.780;2022-11-21T00:56:33;5.80;99.90
10889;DHT22;5497;51.388;6.780;2022-11-21T00:59:00;5.80;99.90
10889;DHT22;5497;51.388;6.780;2022-11-21T01:01:27;5.90;99.90
10889;DHT22;5497;51.388;6.780;2022-11-21T01:03:54;5.90;99.90
10889;DHT22;5497;51.388;6.780;2022-11-21T01:06:24;5.90;99.90
10889;DHT22;5497;51.388;6.780;2022-11-21T01:08:51;5.90;99.90
10889;DHT22;5497;51.388;6.780;2022-11-21T01:11:19;5.90;99.90
10889;DHT22;5497;51.388;6.780;2022-11-21T01:13:46;5.90;99.90
10889;DHT22;5497;51.388;6.780;2022-11-21T01:16:14;5.90;99.90
10889;DHT22;5497;51.388;6.780;2022-11-21T01:18:41;5.90;99.90
10889;DHT22;5497;51.388;6.780;2022-11-21T01:21:11;5.90;99.90
10889;DHT22;5497;51.388;6.780;2022-11-21T01:23:40;5.80;99.90
10889;DHT22;5497;51.388;6.780;2022-11-21T01:26:09;5.70;99.90
10889;DHT22;5497;51.388;6.780;2022-11-21T01:28:36;5.80;99.90
10889;DHT22;5497;51.388;6.780;2022-11-21T01:31:04;5.80;99.90
10889;DHT22;5497;51.388;6.780;2022-11-21T01:33:31;5.80;99.90
10889;DHT22;5497;51.388;6.780;2022-11-21T01:36:04;5.80;99.90
10889;DHT22;5497;51.388;6.780;2022-11-21T01:38:31;5.80;99.90
10889;DHT22;5497;51.388;6.780;2022-11-21T01:41:00;5.80;99.90
10889;DHT22;5497;51.388;6.780;2022-11-21T01:43:27;5.90;99.90
10889;DHT22;5497;51.388;6.780;2022-11-21T01:45:54;5.90;99.90
10889;DHT22;5497;51.388;6.780;2022-11-21T01:48:22;5.90;99.90
10889;DHT22;5497;51.388;6.780;2022-11-21T01:50:51;6.00;99.90
10889;DHT22;5497;51.388;6.780;2022-11-21T01:53:18;6.00;99.90
10889;DHT22;5497;51.388;6.780;2022-11-21T01:55:45;6.00;99.90
10889;DHT22;5497;51.388;6.780;2022-11-21T01:58:14;6.00;99.90
10889;DHT22;5497;51.388;6.780;2022-11-21T02:00:41;6.00;99.90
10889;DHT22;5497;51.388;6.780;2022-11-21T02:03:10;6.00;99.90
10889;DHT22;5497;51.388;6.780;2022-11-21T02:05:38;6.00;99.90
10889;DHT22;5497;51.388;6.780;2022-11-21T02:08:06;6.10;99.90
10889;DHT22;5497;51.388;6.780;2022-11-21T02:10:36;6.10;99.90
10889;DHT22;5497;51.388;6.780;2022-11-21T02:13:04;6.10;99.90
10889;DHT22;5497;51.388;6.780;2022-11-21T02:15:32;6.00;99.90
10889;DHT22;5497;51.388;6.780;2022-11-21T02:17:59;6.00;99.90
10889;DHT22;5497;51.388;6.780;2022-11-21T02:20:27;5.90;99.90
10889;DHT22;5497;51.388;6.780;2022-11-21T02:22:55;5.90;99.90
10889;DHT22;5497;51.388;6.780;2022-11-21T02:25:26;5.90;99.90
10889;DHT22;5497;51.388;6.780;2022-11-21T02:27:54;6.00;99.90
10889;DHT22;5497;51.388;6.780;2022-11-21T02:30:22;6.00;99.90
10889;DHT22;5497;51.388;6.780;2022-11-21T02:32:49;6.00;99.90
10889;DHT22;5497;51.388;6.780;2022-11-21T02:35:17;6.00;99.90
10889;DHT22;5497;51.388;6.780;2022-11-21T02:37:44;6.00;99.90
10889;DHT22;5497;51.388;6.780;2022-11-21T02:40:14;6.00;99.90
10889;DHT22;5497;51.388;6.780;2022-11-21T02:42:44;6.00;99.90
10889;DHT22;5497;51.388;6.780;2022-11-21T02:45:15;6.00;99.90
10889;DHT22;5497;51.388;6.780;2022-11-21T02:47:44;6.00;99.90
10889;DHT22;5497;51.388;6.780;2022-11-21T02:50:15;6.00;99.90
10889;DHT22;5497;51.388;6.780;2022-11-21T02:52:44;6.10;99.90
10889;DHT22;5497;51.388;6.780;2022-11-21T02:55:11;6.10;99.90
10889;DHT22;5497;51.388;6.780;2022-11-21T02:57:40;6.10;99.90
10889;DHT22;5497;51.388;6.780;2022-11-21T03:00:09;6.10;99.90
10889;DHT22;5497;51.388;6.780;2022-11-21T03:02:36;6.10;99.90
10889;DHT22;5497;51.388;6.780;2022-11-21T03:05:04;6.10;99.90
10889;DHT22;5497;51.388;6.780;2022-11-21T03:07:32;6.10;99.90
10889;DHT22;5497;51.388;6.780;2022-11-21T03:09:59;6.10;99.90
10889;DHT22;5497;51.388;6.780;2022-11-21T03:12:26;6.10;99.90
10889;DHT22;5497;51.388;6.780;2022-11-21T03:14:53;6.10;99.90
10889;DHT22;5497;51.388;6.780;2022-11-21T03:17:22;6.10;99.90
10889;DHT22;5497;51.388;6.780;2022-11-21T03:19:48;6.10;99.90
10889;DHT22;5497;51.388;6.780;2022-11-21T03:22:15;6.10;99.90
10889;DHT22;5497;51.388;6.780;2022-11-21T03:24:42;6.10;99.90
10889;DHT22;5497;51.388;6.780;2022-11-21T03:27:09;6.10;99.90
10889;DHT22;5497;51.388;6.780;2022-11-21T03:29:36;6.10;99.90
10889;DHT22;5497;51.388;6.780;2022-11-21T03:32:03;6.10;99.90
10889;DHT22;5497;51.388;6.780;2022-11-21T03:34:32;6.10;99.90
10889;DHT22;5497;51.388;6.780;2022-11-21T03:36:59;6.10;99.90
10889;DHT22;5497;51.388;6.780;2022-11-21T03:39:26;6.10;99.90
10889;DHT22;5497;51.388;6.780;2022-11-21T03:41:53;6.10;99.90
10889;DHT22;5497;51.388;6.780;2022-11-21T03:44:20;6.10;99.90
10889;DHT22;5497;51.388;6.780;2022-11-21T03:46:47;6.00;99.90
10889;DHT22;5497;51.388;6.780;2022-11-21T03:49:14;5.90;99.90
10889;DHT22;5497;51.388;6.780;2022-11-21T03:51:43;6.00;99.90
10889;DHT22;5497;51.388;6.780;2022-11-21T03:54:11;6.00;99.90
10889;DHT22;5497;51.388;6.780;2022-11-21T03:56:38;5.90;99.90
10889;DHT22;5497;51.388;6.780;2022-11-21T03:59:05;5.90;99.90
10889;DHT22;5497;51.388;6.780;2022-11-21T04:01:32;5.90;99.90
10889;DHT22;5497;51.388;6.780;2022-11-21T04:03:59;5.90;99.90
10889;DHT22;5497;51.388;6.780;2022-11-21T04:06:26;5.90;99.90
10889;DHT22;5497;51.388;6.780;2022-11-21T04:08:56;5.90;99.90
10889;DHT22;5497;51.388;6.780;2022-11-21T04:11:23;5.90;99.90
10889;DHT22;5497;51.388;6.780;2022-11-21T04:13:50;5.90;99.90
10889;DHT22;5497;51.388;6.780;2022-11-21T04:16:17;5.90;99.90
10889;DHT22;5497;51.388;6.780;2022-11-21T04:18:45;5.80;99.90
10889;DHT22;5497;51.388;6.780;2022-11-21T04:21:12;5.80;99.90
10889;DHT22;5497;51.388;6.780;2022-11-21T04:23:39;5.80;99.90
10889;DHT22;5497;51.388;6.780;2022-11-21T04:26:07;5.80;99.90
10889;DHT22;5497;51.388;6.780;2022-11-21T04:28:34;5.80;99.90
10889;DHT22;5497;51.388;6.780;2022-11-21T04:31:02;6.80;99.90
10889;DHT22;5497;51.388;6.780;2022-11-21T04:33:29;5.80;99.90
10889;DHT22;5497;51.388;6.780;2022-11-21T04:35:56;5.80;99.90
10889;DHT22;5497;51.388;6.780;2022-11-21T04:38:23;5.80;99.90
10889;DHT22;5497;51.388;6.780;2022-11-21T04:40:50;5.80;99.90
10889;DHT22;5497;51.388;6.780;2022-11-21T04:43:18;5.80;99.90
10889;DHT22;5497;51.388;6.780;2022-11-21T04:45:45;5.70;99.90
10889;DHT22;5497;51.388;6.780;2022-11-21T04:48:12;5.70;99.90
10889;DHT22;5497;51.388;6.780;2022-11-21T04:50:39;5.60;99.90
10889;DHT22;5497;51.388;6.780;2022-11-21T04:53:06;5.50;99.90
10889;DHT22;5497;51.388;6.780;2022-11-21T04:55:34;5.50;99.90
10889;DHT22;5497;51.388;6.780;2022-11-21T04:58:01;5.40;99.90
10889;DHT22;5497;51.388;6.780;2022-11-21T05:00:29;5.40;99.90
10889;DHT22;5497;51.388;6.780;2022-11-21T05:03:00;5.40;99.90
10889;DHT22;5497;51.388;6.780;2022-11-21T05:05:27;5.50;99.90
10889;DHT22;5497;51.388;6.780;2022-11-21T05:07:54;5.50;99.90
10889;DHT22;5497;51.388;6.780;2022-11-21T05:10:21;5.50;99.90
10889;DHT22;5497;51.388;6.780;2022-11-21T05:12:54;5.50;99.90
10889;DHT22;5497;51.388;6.780;2022-11-21T05:15:40;4.00;99.90
10889;DHT22;5497;51.388;6.780;2022-11-21T05:18:07;5.50;99.90
10889;DHT22;5497;51.388;6.780;2022-11-21T05:20:34;5.60;99.90
10889;DHT22;5497;51.388;6.780;2022-11-21T05:23:01;5.60;99.90
10889;DHT22;5497;51.388;6.780;2022-11-21T05:25:29;5.60;99.90
10889;DHT22;5497;51.388;6.780;2022-11-21T05:27:56;5.60;99.90
10889;DHT22;5497;51.388;6.780;2022-11-21T05:30:22;5.60;99.90
10889;DHT22;5497;51.388;6.780;2022-11-21T05:32:51;5.70;99.90
10889;DHT22;5497;51.388;6.780;2022-11-21T05:35:18;5.70;99.90
10889;DHT22;5497;51.388;6.780;2022-11-21T05:37:45;5.70;99.90
10889;DHT22;5497;51.388;6.780;2022-11-21T05:40:12;5.70;99.90
10889;DHT22;5497;51.388;6.780;2022-11-21T05:42:39;5.70;99.90
10889;DHT22;5497;51.388;6.780;2022-11-21T05:45:23;5.60;99.90
10889;DHT22;5497;51.388;6.780;2022-11-21T05:47:51;5.60;99.90
10889;DHT22;5497;51.388;6.780;2022-11-21T05:50:18;5.60;99.90
10889;DHT22;5497;51.388;6.780;2022-11-21T05:52:47;5.60;99.90
10889;DHT22;5497;51.388;6.780;2022-11-21T05:55:18;5.60;99.90
10889;DHT22;5497;51.388;6.780;2022-11-21T05:57:45;5.70;99.90
10889;DHT22;5497;51.388;6.780;2022-11-21T06:00:13;5.70;99.90
10889;DHT22;5497;51.388;6.780;2022-11-21T06:02:40;5.70;99.90
10889;DHT22;5497;51.388;6.780;2022-11-21T06:05:26;5.70;99.90
10889;DHT22;5497;51.388;6.780;2022-11-21T06:07:53;5.80;99.90
10889;DHT22;5497;51.388;6.780;2022-11-21T06:10:21;5.90;99.90
10889;DHT22;5497;51.388;6.780;2022-11-21T06:12:50;5.90;99.90
10889;DHT22;5497;51.388;6.780;2022-11-21T06:15:17;5.90;99.90
10889;DHT22;5497;51.388;6.780;2022-11-21T06:17:44;5.90;99.90
10889;DHT22;5497;51.388;6.780;2022-11-21T06:20:11;5.90;99.90
10889;DHT22;5497;51.388;6.780;2022-11-21T06:22:40;5.90;99.90
10889;DHT22;5497;51.388;6.780;2022-11-21T06:25:07;5.90;99.90
10889;DHT22;5497;51.388;6.780;2022-11-21T06:27:34;5.80;99.90
10889;DHT22;5497;51.388;6.780;2022-11-21T06:30:01;5.80;99.90
10889;DHT22;5497;51.388;6.780;2022-11-21T06:32:29;5.70;99.90
10889;DHT22;5497;51.388;6.780;2022-11-21T06:34:56;5.70;99.90
10889;DHT22;5497;51.388;6.780;2022-11-21T06:37:23;5.70;99.90
10889;DHT22;5497;51.388;6.780;2022-11-21T06:39:51;5.70;99.90
10889;DHT22;5497;51.388;6.780;2022-11-21T06:42:18;5.70;99.90
10889;DHT22;5497;51.388;6.780;2022-11-21T06:44:45;5.80;99.90
10889;DHT22;5497;51.388;6.780;2022-11-21T06:47:12;5.80;99.90
10889;DHT22;5497;51.388;6.780;2022-11-21T06:49:39;5.90;99.90
10889;DHT22;5497;51.388;6.780;2022-11-21T06:52:06;5.90;99.90
10889;DHT22;5497;51.388;6.780;2022-11-21T06:54:33;5.90;99.90
10889;DHT22;5497;51.388;6.780;2022-11-21T06:57:02;6.00;99.90
10889;DHT22;5497;51.388;6.780;2022-11-21T06:59:29;6.00;99.90
10889;DHT22;5497;51.388;6.780;2022-11-21T07:01:58;6.00;99.90
10889;DHT22;5497;51.388;6.780;2022-11-21T07:04:26;6.00;99.90
10889;DHT22;5497;51.388;6.780;2022-11-21T07:06:53;6.00;99.90
10889;DHT22;5497;51.388;6.780;2022-11-21T07:09:20;6.00;99.90
10889;DHT22;5497;51.388;6.780;2022-11-21T07:11:47;6.00;99.90
10889;DHT22;5497;51.388;6.780;2022-11-21T07:14:15;6.00;99.90
10889;DHT22;5497;51.388;6.780;2022-11-21T07:16:42;6.00;99.90
10889;DHT22;5497;51.388;6.780;2022-11-21T07:19:09;6.00;99.90
10889;DHT22;5497;51.388;6.780;2022-11-21T07:21:36;6.00;99.90
10889;DHT22;5497;51.388;6.780;2022-11-21T07:24:03;6.00;99.90
10889;DHT22;5497;51.388;6.780;2022-11-21T07:26:30;6.10;99.90
10889;DHT22;5497;51.388;6.780;2022-11-21T07:28:57;6.00;99.90
10889;DHT22;5497;51.388;6.780;2022-11-21T07:31:26;6.10;99.90
10889;DHT22;5497;51.388;6.780;2022-11-21T07:33:53;6.10;99.90
10889;DHT22;5497;51.388;6.780;2022-11-21T07:36:21;6.10;99.90
10889;DHT22;5497;51.388;6.780;2022-11-21T07:38:48;6.00;99.90
10889;DHT22;5497;51.388;6.780;2022-11-21T07:41:15;6.10;99.90
10889;DHT22;5497;51.388;6.780;2022-11-21T07:43:42;6.00;99.90
10889;DHT22;5497;51.388;6.780;2022-11-21T07:46:09;6.10;99.90
10889;DHT22;5497;51.388;6.780;2022-11-21T07:48:38;6.10;99.90
10889;DHT22;5497;51.388;6.780;2022-11-21T07:51:05;6.20;99.90
10889;DHT22;5497;51.388;6.780;2022-11-21T07:53:32;6.20;99.90
10889;DHT22;5497;51.388;6.780;2022-11-21T07:55:58;6.20;99.90
10889;DHT22;5497;51.388;6.780;2022-11-21T07:58:25;6.20;99.90
10889;DHT22;5497;51.388;6.780;2022-11-21T08:00:55;6.20;99.90
10889;DHT22;5497;51.388;6.780;2022-11-21T08:03:22;6.30;99.90
10889;DHT22;5497;51.388;6.780;2022-11-21T08:05:51;6.30;99.90
10889;DHT22;5497;51.388;6.780;2022-11-21T08:08:18;6.40;99.90
10889;DHT22;5497;51.388;6.780;2022-11-21T08:10:44;6.50;99.90
10889;DHT22;5497;51.388;6.780;2022-11-21T08:13:12;6.50;99.90
10889;DHT22;5497;51.388;6.780;2022-11-21T08:15:39;6.60;99.90
10889;DHT22;5497;51.388;6.780;2022-11-21T08:18:06;6.60;99.90
10889;DHT22;5497;51.388;6.780;2022-11-21T08:20:34;6.60;99.90
10889;DHT22;5497;51.388;6.780;2022-11-21T08:23:02;6.60;99.90
10889;DHT22;5497;51.388;6.780;2022-11-21T08:25:29;6.60;99.90
10889;DHT22;5497;51.388;6.780;2022-11-21T08:27:56;6.70;99.90
10889;DHT22;5497;51.388;6.780;2022-11-21T08:30:23;6.70;99.90
10889;DHT22;5497;51.388;6.780;2022-11-21T08:32:51;6.70;99.90
10889;DHT22;5497;51.388;6.780;2022-11-21T08:35:20;6.70;99.90
10889;DHT22;5497;51.388;6.780;2022-11-21T08:37:47;6.70;99.90
10889;DHT22;5497;51.388;6.780;2022-11-21T08:40:18;6.80;99.90
10889;DHT22;5497;51.388;6.780;2022-11-21T08:42:45;6.80;99.90
10889;DHT22;5497;51.388;6.780;2022-11-21T08:45:18;6.90;99.90
10889;DHT22;5497;51.388;6.780;2022-11-21T08:47:45;6.90;99.90
10889;DHT22;5497;51.388;6.780;2022-11-21T08:50:14;7.00;99.90
10889;DHT22;5497;51.388;6.780;2022-11-21T08:52:41;7.10;99.90
10889;DHT22;5497;51.388;6.780;2022-11-21T08:55:08;7.20;99.90
10889;DHT22;5497;51.388;6.780;2022-11-21T08:57:37;7.30;99.90
10889;DHT22;5497;51.388;6.780;2022-11-21T09:00:05;7.30;99.90
10889;DHT22;5497;51.388;6.780;2022-11-21T09:02:33;7.40;99.90
10889;DHT22;5497;51.388;6.780;2022-11-21T09:05:00;7.40;99.90
10889;DHT22;5497;51.388;6.780;2022-11-21T09:07:28;7.50;99.90
10889;DHT22;5497;51.388;6.780;2022-11-21T09:09:54;7.50;99.90
10889;DHT22;5497;51.388;6.780;2022-11-21T09:12:22;7.50;99.90
10889;DHT22;5497;51.388;6.780;2022-11-21T09:14:50;7.50;99.90
10889;DHT22;5497;51.388;6.780;2022-11-21T09:17:31;5.20;99.90
10889;DHT22;5497;51.388;6.780;2022-11-21T09:20:15;7.50;99.90
10889;DHT22;5497;51.388;6.780;2022-11-21T09:22:42;7.60;99.90
10889;DHT22;5497;51.388;6.780;2022-11-21T09:25:09;7.60;99.90
10889;DHT22;5497;51.388;6.780;2022-11-21T09:27:36;7.60;99.90
10889;DHT22;5497;51.388;6.780;2022-11-21T09:30:05;7.70;99.90
10889;DHT22;5497;51.388;6.780;2022-11-21T09:32:32;7.80;99.90
10889;DHT22;5497;51.388;6.780;2022-11-21T09:35:00;7.90;99.90
10889;DHT22;5497;51.388;6.780;2022-11-21T09:37:27;8.00;99.90
10889;DHT22;5497;51.388;6.780;2022-11-21T09:39:54;8.00;99.90
10889;DHT22;5497;51.388;6.780;2022-11-21T09:42:25;8.10;99.90
10889;DHT22;5497;51.388;6.780;2022-11-21T09:44:57;8.20;99.90
10889;DHT22;5497;51.388;6.780;2022-11-21T09:47:27;8.50;99.90
10889;DHT22;5497;51.388;6.780;2022-11-21T09:49:56;8.50;99.90
10889;DHT22;5497;51.388;6.780;2022-11-21T09:52:26;8.50;99.90
10889;DHT22;5497;51.388;6.780;2022-11-21T09:54:56;8.70;99.90
10889;DHT22;5497;51.388;6.780;2022-11-21T09:57:24;8.80;99.90
10889;DHT22;5497;51.388;6.780;2022-11-21T09:59:51;8.80;99.90
10889;DHT22;5497;51.388;6.780;2022-11-21T10:02:20;8.80;99.90
10889;DHT22;5497;51.388;6.780;2022-11-21T10:04:49;8.90;99.90
10889;DHT22;5497;51.388;6.780;2022-11-21T10:07:18;9.00;99.90
10889;DHT22;5497;51.388;6.780;2022-11-21T10:12:31;9.20;99.90
10889;DHT22;5497;51.388;6.780;2022-11-21T10:15:07;9.30;99.90
10889;DHT22;5497;51.388;6.780;2022-11-21T10:17:39;9.60;99.90
10889;DHT22;5497;51.388;6.780;2022-11-21T10:20:23;10.00;99.90
10889;DHT22;5497;51.388;6.780;2022-11-21T10:23:01;10.30;99.90
10889;DHT22;5497;51.388;6.780;2022-11-21T10:25:32;10.60;99.90
10889;DHT22;5497;51.388;6.780;2022-11-21T10:28:03;10.70;99.90
10889;DHT22;5497;51.388;6.780;2022-11-21T10:30:32;10.70;99.90
10889;DHT22;5497;51.388;6.780;2022-11-21T10:33:03;10.60;99.90
10889;DHT22;5497;51.388;6.780;2022-11-21T10:35:35;10.50;99.90
10889;DHT22;5497;51.388;6.780;2022-11-21T10:38:10;10.40;99.90
10889;DHT22;5497;51.388;6.780;2022-11-21T10:40:42;10.30;99.90
10889;DHT22;5497;51.388;6.780;2022-11-21T10:43:14;10.10;99.90
10889;DHT22;5497;51.388;6.780;2022-11-21T10:46:00;10.10;99.90
10889;DHT22;5497;51.388;6.780;2022-11-21T10:48:27;10.10;99.90
10889;DHT22;5497;51.388;6.780;2022-11-21T10:53:39;10.40;99.90
10889;DHT22;5497;51.388;6.780;2022-11-21T10:56:25;10.60;99.90
10889;DHT22;5497;51.388;6.780;2022-11-21T10:58:52;10.60;99.90
10889;DHT22;5497;51.388;6.780;2022-11-21T11:01:24;10.60;99.90
10889;DHT22;5497;51.388;6.780;2022-11-21T11:04:05;10.60;99.90
10889;DHT22;5497;51.388;6.780;2022-11-21T11:06:32;10.40;99.90
10889;DHT22;5497;51.388;6.780;2022-11-21T11:09:01;10.40;99.90
10889;DHT22;5497;51.388;6.780;2022-11-21T11:11:28;10.40;99.90
10889;DHT22;5497;51.388;6.780;2022-11-21T11:13:56;10.40;99.90
10889;DHT22;5497;51.388;6.780;2022-11-21T11:16:23;10.40;99.90
10889;DHT22;5497;51.388;6.780;2022-11-21T11:18:53;10.60;99.90
10889;DHT22;5497;51.388;6.780;2022-11-21T11:21:21;10.80;99.90
10889;DHT22;5497;51.388;6.780;2022-11-21T11:23:49;10.90;99.90
10889;DHT22;5497;51.388;6.780;2022-11-21T11:26:20;10.80;99.90
10889;DHT22;5497;51.388;6.780;2022-11-21T11:28:47;10.70;99.90
10889;DHT22;5497;51.388;6.780;2022-11-21T11:31:14;10.70;99.90
10889;DHT22;5497;51.388;6.780;2022-11-21T11:33:48;10.70;99.90
10889;DHT22;5497;51.388;6.780;2022-11-21T11:36:17;10.70;99.90
10889;DHT22;5497;51.388;6.780;2022-11-21T11:38:51;10.70;99.90
10889;DHT22;5497;51.388;6.780;2022-11-21T11:41:30;10.80;99.90
10889;DHT22;5497;51.388;6.780;2022-11-21T11:44:21;10.70;99.90
10889;DHT22;5497;51.388;6.780;2022-11-21T11:47:07;10.70;99.90
10889;DHT22;5497;51.388;6.780;2022-11-21T11:49:54;10.70;99.90
10889;DHT22;5497;51.388;6.780;2022-11-21T11:52:39;10.90;99.90
10889;DHT22;5497;51.388;6.780;2022-11-21T11:55:07;11.20;99.90
10889;DHT22;5497;51.388;6.780;2022-11-21T11:57:41;11.40;99.90
10889;DHT22;5497;51.388;6.780;2022-11-21T12:00:15;11.50;99.90
10889;DHT22;5497;51.388;6.780;2022-11-21T12:02:48;11.60;99.90
10889;DHT22;5497;51.388;6.780;2022-11-21T12:05:18;11.60;99.90
10889;DHT22;5497;51.388;6.780;2022-11-21T12:07:47;11.80;99.90
10889;DHT22;5497;51.388;6.780;2022-11-21T12:10:17;12.10;99.90
10889;DHT22;5497;51.388;6.780;2022-11-21T12:12:47;12.30;99.90
10889;DHT22;5497;51.388;6.780;2022-11-21T12:15:16;12.40;99.90
10889;DHT22;5497;51.388;6.780;2022-11-21T12:18:06;12.90;99.90
10889;DHT22;5497;51.388;6.780;2022-11-21T12:20:35;12.90;99.90
10889;DHT22;5497;51.388;6.780;2022-11-21T12:23:05;12.90;99.90
10889;DHT22;5497;51.388;6.780;2022-11-21T12:25:35;12.90;99.90
10889;DHT22;5497;51.388;6.780;2022-11-21T12:28:06;12.90;99.90
10889;DHT22;5497;51.388;6.780;2022-11-21T12:33:17;12.60;99.90
10889;DHT22;5497;51.388;6.780;2022-11-21T12:35:51;12.60;99.90
10889;DHT22;5497;51.388;6.780;2022-11-21T12:38:28;12.50;99.90
10889;DHT22;5497;51.388;6.780;2022-11-21T12:41:04;12.30;99.90
10889;DHT22;5497;51.388;6.780;2022-11-21T12:44:01;12.10;99.90
10889;DHT22;5497;51.388;6.780;2022-11-21T12:46:36;11.80;99.90
10889;DHT22;5497;51.388;6.780;2022-11-21T12:49:11;11.70;99.90
10889;DHT22;5497;51.388;6.780;2022-11-21T12:52:07;11.70;99.90
10889;DHT22;5497;51.388;6.780;2022-11-21T12:55:02;11.70;99.90
10889;DHT22;5497;51.388;6.780;2022-11-21T12:57:36;11.60;99.90
10889;DHT22;5497;51.388;6.780;2022-11-21T13:00:10;11.40;99.90
10889;DHT22;5497;51.388;6.780;2022-11-21T13:02:44;11.20;99.90
10889;DHT22;5497;51.388;6.780;2022-11-21T13:05:16;11.00;99.90
10889;DHT22;5497;51.388;6.780;2022-11-21T13:07:44;10.90;99.90
10889;DHT22;5497;51.388;6.780;2022-11-21T13:10:13;10.80;99.90
10889;DHT22;5497;51.388;6.780;2022-11-21T13:12:42;10.80;99.90
10889;DHT22;5497;51.388;6.780;2022-11-21T13:15:15;10.80;99.90
10889;DHT22;5497;51.388;6.780;2022-11-21T13:17:45;10.80;99.90
10889;DHT22;5497;51.388;6.780;2022-11-21T13:20:15;10.70;99.90
10889;DHT22;5497;51.388;6.780;2022-11-21T13:22:50;10.70;99.90
10889;DHT22;5497;51.388;6.780;2022-11-21T13:31:24;10.50;99.90
10889;DHT22;5497;51.388;6.780;2022-11-21T13:33:52;10.50;99.90
10889;DHT22;5497;51.388;6.780;2022-11-21T13:42:01;10.30;99.90
10889;DHT22;5497;51.388;6.780;2022-11-21T13:44:46;10.30;99.90
10889;DHT22;5497;51.388;6.780;2022-11-21T13:50:00;10.20;99.90
10889;DHT22;5497;51.388;6.780;2022-11-21T13:52:32;10.20;99.90
10889;DHT22;5497;51.388;6.780;2022-11-21T13:55:17;10.10;99.90
10889;DHT22;5497;51.388;6.780;2022-11-21T13:57:52;10.10;99.90
10889;DHT22;5497;51.388;6.780;2022-11-21T14:00:27;10.10;99.90
10889;DHT22;5497;51.388;6.780;2022-11-21T14:03:06;10.00;99.90
10889;DHT22;5497;51.388;6.780;2022-11-21T14:05:45;10.00;99.90
10889;DHT22;5497;51.388;6.780;2022-11-21T14:08:16;9.90;99.90
10889;DHT22;5497;51.388;6.780;2022-11-21T14:10:45;9.90;99.90
10889;DHT22;5497;51.388;6.780;2022-11-21T14:13:16;9.80;99.90
10889;DHT22;5497;51.388;6.780;2022-11-21T14:15:46;9.80;99.90
10889;DHT22;5497;51.388;6.780;2022-11-21T14:18:19;9.70;99.90
10889;DHT22;5497;51.388;6.780;2022-11-21T14:20:50;9.60;99.90
10889;DHT22;5497;51.388;6.780;2022-11-21T14:23:19;9.60;99.90
10889;DHT22;5497;51.388;6.780;2022-11-21T14:25:46;9.50;99.90
10889;DHT22;5497;51.388;6.780;2022-11-21T14:28:15;9.50;99.90
10889;DHT22;5497;51.388;6.780;2022-11-21T14:30:43;9.40;99.90
10889;DHT22;5497;51.388;6.780;2022-11-21T14:33:27;9.40;99.90
10889;DHT22;5497;51.388;6.780;2022-11-21T14:35:57;9.40;99.90
10889;DHT22;5497;51.388;6.780;2022-11-21T14:38:27;9.30;99.90
10889;DHT22;5497;51.388;6.780;2022-11-21T14:41:21;9.20;99.90
10889;DHT22;5497;51.388;6.780;2022-11-21T14:43:50;9.10;99.90
10889;DHT22;5497;51.388;6.780;2022-11-21T14:51:42;8.90;99.90
10889;DHT22;5497;51.388;6.780;2022-11-21T14:54:10;8.80;99.90
10889;DHT22;5497;51.388;6.780;2022-11-21T14:56:39;8.70;99.90
10889;DHT22;5497;51.388;6.780;2022-11-21T14:59:11;8.60;99.90
10889;DHT22;5497;51.388;6.780;2022-11-21T15:01:42;8.60;99.90
10889;DHT22;5497;51.388;6.780;2022-11-21T15:04:25;8.50;99.90
10889;DHT22;5497;51.388;6.780;2022-11-21T15:06:53;8.40;99.90
10889;DHT22;5497;51.388;6.780;2022-11-21T15:09:23;8.30;99.90
10889;DHT22;5497;51.388;6.780;2022-11-21T15:11:50;8.30;99.90
10889;DHT22;5497;51.388;6.780;2022-11-21T15:14:19;8.20;99.90
10889;DHT22;5497;51.388;6.780;2022-11-21T15:16:48;8.10;99.90
10889;DHT22;5497;51.388;6.780;2022-11-21T15:19:18;8.10;99.90
10889;DHT22;5497;51.388;6.780;2022-11-21T15:21:46;8.00;99.90
10889;DHT22;5497;51.388;6.780;2022-11-21T15:24:26;8.00;99.90
10889;DHT22;5497;51.388;6.780;2022-11-21T15:26:54;7.90;99.90
10889;DHT22;5497;51.388;6.780;2022-11-21T15:29:21;7.80;99.90
10889;DHT22;5497;51.388;6.780;2022-11-21T15:32:04;7.80;99.90
10889;DHT22;5497;51.388;6.780;2022-11-21T15:34:31;7.70;99.90
10889;DHT22;5497;51.388;6.780;2022-11-21T15:37:04;7.70;99.90
10889;DHT22;5497;51.388;6.780;2022-11-21T15:39:34;7.60;99.90
10889;DHT22;5497;51.388;6.780;2022-11-21T15:44:57;7.50;99.90
10889;DHT22;5497;51.388;6.780;2022-11-21T15:47:25;7.50;99.90
10889;DHT22;5497;51.388;6.780;2022-11-21T15:49:52;7.50;99.90
10889;DHT22;5497;51.388;6.780;2022-11-21T15:52:19;7.40;99.90
10889;DHT22;5497;51.388;6.780;2022-11-21T15:54:50;7.40;99.90
10889;DHT22;5497;51.388;6.780;2022-11-21T15:57:28;7.40;99.90
10889;DHT22;5497;51.388;6.780;2022-11-21T15:59:55;7.40;99.90
10889;DHT22;5497;51.388;6.780;2022-11-21T16:02:22;7.40;99.90
10889;DHT22;5497;51.388;6.780;2022-11-21T16:04:49;7.40;99.90
10889;DHT22;5497;51.388;6.780;2022-11-21T16:07:17;7.40;99.90
10889;DHT22;5497;51.388;6.780;2022-11-21T16:09:44;7.40;99.90
10889;DHT22;5497;51.388;6.780;2022-11-21T16:12:13;7.40;99.90
10889;DHT22;5497;51.388;6.780;2022-11-21T16:14:39;7.40;99.90
10889;DHT22;5497;51.388;6.780;2022-11-21T16:17:06;7.40;99.90
10889;DHT22;5497;51.388;6.780;2022-11-21T16:19:34;7.50;99.90
10889;DHT22;5497;51.388;6.780;2022-11-21T16:22:00;7.50;99.90
10889;DHT22;5497;51.388;6.780;2022-11-21T16:24:27;7.50;99.90
10889;DHT22;5497;51.388;6.780;2022-11-21T16:26:54;7.50;99.90
10889;DHT22;5497;51.388;6.780;2022-11-21T16:29:23;7.50;99.90
10889;DHT22;5497;51.388;6.780;2022-11-21T16:31:50;7.50;99.90
10889;DHT22;5497;51.388;6.780;2022-11-21T16:34:20;7.60;99.90
10889;DHT22;5497;51.388;6.780;2022-11-21T16:36:47;7.60;99.90
10889;DHT22;5497;51.388;6.780;2022-11-21T16:39:14;7.60;99.90
10889;DHT22;5497;51.388;6.780;2022-11-21T16:41:41;7.60;99.90